sensor_id;sensor_type;location;lat;lon;timestamp;P1;durP1;ratioP1;P2;durP2;ratioP2
11100;SDS011;5604;50.722;7.078;2022-08-19T00:01:26;660.50;;;628.20;;
11100;SDS011;5604;50.722;7.078;2022-08-19T00:03:56;662.07;;;629.63;;
11100;SDS011;5604;50.722;7.078;2022-08-19T00:06:24;664.10;;;631.37;;
11100;SDS011;5604;50.722;7.078;2022-08-19T00:08:54;663.30;;;631.00;;
11100;SDS011;5604;50.722;7.078;2022-08-19T00:11:23;655.23;;;623.33;;
11100;SDS011;5604;50.722;7.078;2022-08-19T00:13:52;657.90;;;625.47;;
11100;SDS011;5604;50.722;7.078;2022-08-19T00:16:22;664.63;;;632.13;;
11100;SDS011;5604;50.722;7.078;2022-08-19T00:18:52;661.53;;;629.27;;
11100;SDS011;5604;50.722;7.078;2022-08-19T00:21:22;659.90;;;627.67;;
11100;SDS011;5604;50.722;7.078;2022-08-19T00:23:50;663.73;;;631.27;;
11100;SDS011;5604;50.722;7.078;2022-08-19T00:26:20;658.60;;;626.23;;
11100;SDS011;5604;50.722;7.078;2022-08-19T00:28:48;660.60;;;628.13;;
11100;SDS011;5604;50.722;7.078;2022-08-19T00:31:16;658.80;;;626.47;;
11100;SDS011;5604;50.722;7.078;2022-08-19T00:33:44;658.67;;;626.20;;
11100;SDS011;5604;50.722;7.078;2022-08-19T00:36:12;665.13;;;632.43;;
11100;SDS011;5604;50.722;7.078;2022-08-19T00:38:41;654.57;;;622.47;;
11100;SDS011;5604;50.722;7.078;2022-08-19T00:41:09;656.50;;;624.33;;
11100;SDS011;5604;50.722;7.078;2022-08-19T00:43:39;663.07;;;630.53;;
11100;SDS011;5604;50.722;7.078;2022-08-19T00:46:08;662.13;;;629.20;;
11100;SDS011;5604;50.722;7.078;2022-08-19T00:48:37;659.43;;;627.00;;
11100;SDS011;5604;50.722;7.078;2022-08-19T00:51:05;661.97;;;629.27;;
11100;SDS011;5604;50.722;7.078;2022-08-19T00:53:33;667.93;;;634.90;;
11100;SDS011;5604;50.722;7.078;2022-08-19T00:56:02;662.60;;;629.93;;
11100;SDS011;5604;50.722;7.078;2022-08-19T00:58:33;668.40;;;635.20;;
11100;SDS011;5604;50.722;7.078;2022-08-19T01:01:05;666.17;;;633.30;;
11100;SDS011;5604;50.722;7.078;2022-08-19T01:03:34;667.07;;;634.03;;
11100;SDS011;5604;50.722;7.078;2022-08-19T01:06:22;659.33;;;626.80;;
11100;SDS011;5604;50.722;7.078;2022-08-19T01:08:50;659.77;;;627.20;;
11100;SDS011;5604;50.722;7.078;2022-08-19T01:11:18;676.47;;;643.13;;
11100;SDS011;5604;50.722;7.078;2022-08-19T01:13:46;677.90;;;644.17;;
11100;SDS011;5604;50.722;7.078;2022-08-19T01:16:17;669.07;;;635.97;;
11100;SDS011;5604;50.722;7.078;2022-08-19T01:18:47;675.70;;;642.03;;
11100;SDS011;5604;50.722;7.078;2022-08-19T01:21:18;674.23;;;640.93;;
11100;SDS011;5604;50.722;7.078;2022-08-19T01:23:51;663.90;;;631.50;;
11100;SDS011;5604;50.722;7.078;2022-08-19T01:26:20;664.27;;;631.30;;
11100;SDS011;5604;50.722;7.078;2022-08-19T01:28:52;663.23;;;630.83;;
11100;SDS011;5604;50.722;7.078;2022-08-19T01:31:27;668.70;;;635.77;;
11100;SDS011;5604;50.722;7.078;2022-08-19T01:33:59;665.00;;;632.47;;
11100;SDS011;5604;50.722;7.078;2022-08-19T01:36:30;663.50;;;630.80;;
11100;SDS011;5604;50.722;7.078;2022-08-19T01:39:01;670.03;;;637.23;;
11100;SDS011;5604;50.722;7.078;2022-08-19T01:41:33;658.00;;;625.80;;
11100;SDS011;5604;50.722;7.078;2022-08-19T01:44:01;668.93;;;636.23;;
11100;SDS011;5604;50.722;7.078;2022-08-19T01:46:45;662.53;;;630.20;;
11100;SDS011;5604;50.722;7.078;2022-08-19T01:49:15;665.57;;;632.67;;
11100;SDS011;5604;50.722;7.078;2022-08-19T01:51:44;673.00;;;640.10;;
11100;SDS011;5604;50.722;7.078;2022-08-19T01:54:13;665.80;;;633.07;;
11100;SDS011;5604;50.722;7.078;2022-08-19T01:56:54;667.03;;;634.27;;
11100;SDS011;5604;50.722;7.078;2022-08-19T01:59:25;665.47;;;631.97;;
11100;SDS011;5604;50.722;7.078;2022-08-19T02:01:53;667.67;;;634.47;;
11100;SDS011;5604;50.722;7.078;2022-08-19T02:04:21;668.53;;;635.53;;
11100;SDS011;5604;50.722;7.078;2022-08-19T02:06:51;675.30;;;642.07;;
11100;SDS011;5604;50.722;7.078;2022-08-19T02:09:21;671.03;;;638.07;;
11100;SDS011;5604;50.722;7.078;2022-08-19T02:11:49;670.67;;;637.57;;
11100;SDS011;5604;50.722;7.078;2022-08-19T02:14:17;673.73;;;640.53;;
11100;SDS011;5604;50.722;7.078;2022-08-19T02:16:45;665.73;;;632.97;;
11100;SDS011;5604;50.722;7.078;2022-08-19T02:19:13;664.30;;;631.60;;
11100;SDS011;5604;50.722;7.078;2022-08-19T02:21:41;659.67;;;627.00;;
11100;SDS011;5604;50.722;7.078;2022-08-19T02:24:10;663.00;;;630.40;;
11100;SDS011;5604;50.722;7.078;2022-08-19T02:26:40;668.27;;;635.27;;
11100;SDS011;5604;50.722;7.078;2022-08-19T02:29:09;663.97;;;631.57;;
11100;SDS011;5604;50.722;7.078;2022-08-19T02:31:37;663.70;;;630.83;;
11100;SDS011;5604;50.722;7.078;2022-08-19T02:34:05;664.30;;;631.77;;
11100;SDS011;5604;50.722;7.078;2022-08-19T02:36:33;660.00;;;627.60;;
11100;SDS011;5604;50.722;7.078;2022-08-19T02:39:08;665.33;;;632.70;;
11100;SDS011;5604;50.722;7.078;2022-08-19T02:41:35;659.03;;;626.83;;
11100;SDS011;5604;50.722;7.078;2022-08-19T02:44:05;674.83;;;641.73;;
11100;SDS011;5604;50.722;7.078;2022-08-19T02:46:53;672.37;;;639.37;;
11100;SDS011;5604;50.722;7.078;2022-08-19T02:49:21;668.77;;;635.57;;
11100;SDS011;5604;50.722;7.078;2022-08-19T02:51:50;668.50;;;635.53;;
11100;SDS011;5604;50.722;7.078;2022-08-19T02:54:18;672.73;;;639.03;;
11100;SDS011;5604;50.722;7.078;2022-08-19T02:56:46;667.47;;;634.50;;
11100;SDS011;5604;50.722;7.078;2022-08-19T02:59:15;672.30;;;639.17;;
11100;SDS011;5604;50.722;7.078;2022-08-19T03:01:48;674.80;;;641.50;;
11100;SDS011;5604;50.722;7.078;2022-08-19T03:04:17;668.47;;;635.27;;
11100;SDS011;5604;50.722;7.078;2022-08-19T03:06:46;668.20;;;635.00;;
11100;SDS011;5604;50.722;7.078;2022-08-19T03:09:15;671.63;;;638.00;;
11100;SDS011;5604;50.722;7.078;2022-08-19T03:11:43;661.17;;;628.67;;
11100;SDS011;5604;50.722;7.078;2022-08-19T03:14:15;666.43;;;633.57;;
11100;SDS011;5604;50.722;7.078;2022-08-19T03:16:45;661.30;;;628.60;;
11100;SDS011;5604;50.722;7.078;2022-08-19T03:19:15;666.10;;;633.00;;
11100;SDS011;5604;50.722;7.078;2022-08-19T03:21:44;670.60;;;637.37;;
11100;SDS011;5604;50.722;7.078;2022-08-19T03:24:13;665.70;;;632.60;;
11100;SDS011;5604;50.722;7.078;2022-08-19T03:26:43;658.80;;;626.07;;
11100;SDS011;5604;50.722;7.078;2022-08-19T03:29:12;666.60;;;633.90;;
11100;SDS011;5604;50.722;7.078;2022-08-19T03:31:57;661.20;;;628.87;;
11100;SDS011;5604;50.722;7.078;2022-08-19T03:34:27;659.40;;;626.87;;
11100;SDS011;5604;50.722;7.078;2022-08-19T03:36:57;660.73;;;628.37;;
11100;SDS011;5604;50.722;7.078;2022-08-19T03:39:27;667.57;;;634.87;;
11100;SDS011;5604;50.722;7.078;2022-08-19T03:41:55;674.13;;;640.73;;
11100;SDS011;5604;50.722;7.078;2022-08-19T03:44:46;668.73;;;635.67;;
11100;SDS011;5604;50.722;7.078;2022-08-19T03:47:15;658.53;;;625.97;;
11100;SDS011;5604;50.722;7.078;2022-08-19T03:49:44;662.70;;;629.90;;
11100;SDS011;5604;50.722;7.078;2022-08-19T03:52:12;654.90;;;622.63;;
11100;SDS011;5604;50.722;7.078;2022-08-19T03:54:41;657.27;;;624.93;;
11100;SDS011;5604;50.722;7.078;2022-08-19T03:57:09;662.17;;;629.53;;
11100;SDS011;5604;50.722;7.078;2022-08-19T03:59:37;654.23;;;622.20;;
11100;SDS011;5604;50.722;7.078;2022-08-19T04:02:07;656.90;;;624.57;;
11100;SDS011;5604;50.722;7.078;2022-08-19T04:04:38;670.67;;;637.53;;
11100;SDS011;5604;50.722;7.078;2022-08-19T04:07:07;661.17;;;628.50;;
11100;SDS011;5604;50.722;7.078;2022-08-19T04:09:36;665.83;;;633.07;;
11100;SDS011;5604;50.722;7.078;2022-08-19T04:12:04;651.23;;;618.93;;
11100;SDS011;5604;50.722;7.078;2022-08-19T04:14:33;662.77;;;630.17;;
11100;SDS011;5604;50.722;7.078;2022-08-19T04:17:02;669.23;;;636.10;;
11100;SDS011;5604;50.722;7.078;2022-08-19T04:19:32;667.13;;;633.73;;
11100;SDS011;5604;50.722;7.078;2022-08-19T04:22:03;660.17;;;627.57;;
11100;SDS011;5604;50.722;7.078;2022-08-19T04:24:31;665.93;;;632.70;;
11100;SDS011;5604;50.722;7.078;2022-08-19T04:26:59;664.20;;;631.40;;
11100;SDS011;5604;50.722;7.078;2022-08-19T04:29:28;658.30;;;625.57;;
11100;SDS011;5604;50.722;7.078;2022-08-19T04:31:57;661.27;;;628.53;;
11100;SDS011;5604;50.722;7.078;2022-08-19T04:34:35;666.57;;;633.37;;
11100;SDS011;5604;50.722;7.078;2022-08-19T04:37:25;661.07;;;628.40;;
11100;SDS011;5604;50.722;7.078;2022-08-19T04:40:02;656.83;;;624.20;;
11100;SDS011;5604;50.722;7.078;2022-08-19T04:42:49;665.83;;;632.27;;
11100;SDS011;5604;50.722;7.078;2022-08-19T04:45:18;671.13;;;637.60;;
11100;SDS011;5604;50.722;7.078;2022-08-19T04:47:48;668.90;;;635.70;;
11100;SDS011;5604;50.722;7.078;2022-08-19T04:50:39;666.77;;;633.43;;
11100;SDS011;5604;50.722;7.078;2022-08-19T04:53:09;660.53;;;627.60;;
11100;SDS011;5604;50.722;7.078;2022-08-19T04:55:38;661.70;;;628.83;;
11100;SDS011;5604;50.722;7.078;2022-08-19T04:58:08;662.40;;;629.47;;
11100;SDS011;5604;50.722;7.078;2022-08-19T05:00:37;663.27;;;630.40;;
11100;SDS011;5604;50.722;7.078;2022-08-19T05:03:06;662.77;;;630.03;;
11100;SDS011;5604;50.722;7.078;2022-08-19T05:05:37;659.20;;;626.37;;
11100;SDS011;5604;50.722;7.078;2022-08-19T05:08:12;661.67;;;628.70;;
11100;SDS011;5604;50.722;7.078;2022-08-19T05:10:57;679.17;;;645.10;;
11100;SDS011;5604;50.722;7.078;2022-08-19T05:13:25;690.13;;;655.23;;
11100;SDS011;5604;50.722;7.078;2022-08-19T05:15:54;675.97;;;641.80;;
11100;SDS011;5604;50.722;7.078;2022-08-19T05:18:25;677.70;;;643.20;;
11100;SDS011;5604;50.722;7.078;2022-08-19T05:21:12;671.00;;;637.33;;
11100;SDS011;5604;50.722;7.078;2022-08-19T05:24:00;672.10;;;638.37;;
11100;SDS011;5604;50.722;7.078;2022-08-19T05:26:28;668.63;;;635.13;;
11100;SDS011;5604;50.722;7.078;2022-08-19T05:28:56;666.40;;;632.83;;
11100;SDS011;5604;50.722;7.078;2022-08-19T05:31:26;661.53;;;628.53;;
11100;SDS011;5604;50.722;7.078;2022-08-19T05:33:54;664.00;;;630.77;;
11100;SDS011;5604;50.722;7.078;2022-08-19T05:36:22;669.43;;;635.87;;
11100;SDS011;5604;50.722;7.078;2022-08-19T05:38:50;664.47;;;630.97;;
11100;SDS011;5604;50.722;7.078;2022-08-19T05:41:21;664.43;;;630.80;;
11100;SDS011;5604;50.722;7.078;2022-08-19T05:43:57;669.30;;;635.33;;
11100;SDS011;5604;50.722;7.078;2022-08-19T05:46:26;661.43;;;627.80;;
11100;SDS011;5604;50.722;7.078;2022-08-19T05:48:54;665.73;;;632.43;;
11100;SDS011;5604;50.722;7.078;2022-08-19T05:51:23;663.53;;;629.90;;
11100;SDS011;5604;50.722;7.078;2022-08-19T05:53:54;656.30;;;623.30;;
11100;SDS011;5604;50.722;7.078;2022-08-19T05:56:24;660.67;;;627.37;;
11100;SDS011;5604;50.722;7.078;2022-08-19T05:58:52;658.67;;;625.47;;
11100;SDS011;5604;50.722;7.078;2022-08-19T06:01:24;657.97;;;624.90;;
11100;SDS011;5604;50.722;7.078;2022-08-19T06:03:53;654.90;;;622.20;;
11100;SDS011;5604;50.722;7.078;2022-08-19T06:06:21;652.50;;;619.60;;
11100;SDS011;5604;50.722;7.078;2022-08-19T06:08:49;661.80;;;628.50;;
11100;SDS011;5604;50.722;7.078;2022-08-19T06:11:19;661.47;;;628.00;;
11100;SDS011;5604;50.722;7.078;2022-08-19T06:13:50;651.57;;;618.70;;
11100;SDS011;5604;50.722;7.078;2022-08-19T06:16:25;655.00;;;622.13;;
11100;SDS011;5604;50.722;7.078;2022-08-19T06:18:54;652.83;;;619.93;;
11100;SDS011;5604;50.722;7.078;2022-08-19T06:21:25;650.97;;;618.10;;
11100;SDS011;5604;50.722;7.078;2022-08-19T06:23:54;650.43;;;617.73;;
11100;SDS011;5604;50.722;7.078;2022-08-19T06:26:23;636.33;;;604.63;;
11100;SDS011;5604;50.722;7.078;2022-08-19T06:28:54;643.67;;;611.20;;
11100;SDS011;5604;50.722;7.078;2022-08-19T06:31:23;646.10;;;613.57;;
11100;SDS011;5604;50.722;7.078;2022-08-19T06:33:52;634.33;;;602.57;;
11100;SDS011;5604;50.722;7.078;2022-08-19T06:36:22;635.03;;;602.13;;
11100;SDS011;5604;50.722;7.078;2022-08-19T06:38:53;628.67;;;597.43;;
11100;SDS011;5604;50.722;7.078;2022-08-19T06:41:22;628.33;;;596.87;;
11100;SDS011;5604;50.722;7.078;2022-08-19T06:43:51;629.00;;;597.63;;
11100;SDS011;5604;50.722;7.078;2022-08-19T06:46:23;617.30;;;586.53;;
11100;SDS011;5604;50.722;7.078;2022-08-19T06:48:52;613.07;;;582.80;;
11100;SDS011;5604;50.722;7.078;2022-08-19T06:51:21;620.17;;;589.27;;
11100;SDS011;5604;50.722;7.078;2022-08-19T06:53:51;613.97;;;583.37;;
11100;SDS011;5604;50.722;7.078;2022-08-19T06:56:22;613.13;;;582.70;;
11100;SDS011;5604;50.722;7.078;2022-08-19T06:58:57;615.77;;;585.33;;
11100;SDS011;5604;50.722;7.078;2022-08-19T07:01:27;610.00;;;579.90;;
11100;SDS011;5604;50.722;7.078;2022-08-19T07:03:56;603.37;;;573.53;;
11100;SDS011;5604;50.722;7.078;2022-08-19T07:06:24;604.13;;;574.17;;
11100;SDS011;5604;50.722;7.078;2022-08-19T07:09:11;600.63;;;570.50;;
11100;SDS011;5604;50.722;7.078;2022-08-19T07:11:44;596.20;;;566.90;;
11100;SDS011;5604;50.722;7.078;2022-08-19T07:14:14;619.47;;;589.10;;
11100;SDS011;5604;50.722;7.078;2022-08-19T07:16:47;607.50;;;577.87;;
11100;SDS011;5604;50.722;7.078;2022-08-19T07:19:17;599.67;;;570.60;;
11100;SDS011;5604;50.722;7.078;2022-08-19T07:21:47;603.10;;;573.73;;
11100;SDS011;5604;50.722;7.078;2022-08-19T07:24:18;606.73;;;576.97;;
11100;SDS011;5604;50.722;7.078;2022-08-19T07:26:49;601.53;;;572.10;;
11100;SDS011;5604;50.722;7.078;2022-08-19T07:29:21;602.07;;;572.50;;
11100;SDS011;5604;50.722;7.078;2022-08-19T07:31:55;595.77;;;566.63;;
11100;SDS011;5604;50.722;7.078;2022-08-19T07:34:27;602.17;;;573.07;;
11100;SDS011;5604;50.722;7.078;2022-08-19T07:36:56;595.47;;;566.70;;
11100;SDS011;5604;50.722;7.078;2022-08-19T07:39:25;589.07;;;560.67;;
11100;SDS011;5604;50.722;7.078;2022-08-19T07:41:55;588.97;;;560.97;;
11100;SDS011;5604;50.722;7.078;2022-08-19T07:44:25;585.20;;;556.90;;
11100;SDS011;5604;50.722;7.078;2022-08-19T07:46:54;582.57;;;554.87;;
11100;SDS011;5604;50.722;7.078;2022-08-19T07:49:26;573.00;;;545.87;;
11100;SDS011;5604;50.722;7.078;2022-08-19T07:51:56;581.63;;;553.77;;
11100;SDS011;5604;50.722;7.078;2022-08-19T07:54:28;571.00;;;543.73;;
11100;SDS011;5604;50.722;7.078;2022-08-19T07:56:58;576.87;;;549.37;;
11100;SDS011;5604;50.722;7.078;2022-08-19T07:59:26;574.90;;;547.70;;
11100;SDS011;5604;50.722;7.078;2022-08-19T08:01:56;575.67;;;548.37;;
11100;SDS011;5604;50.722;7.078;2022-08-19T08:04:26;576.27;;;548.70;;
11100;SDS011;5604;50.722;7.078;2022-08-19T08:07:12;574.90;;;547.47;;
11100;SDS011;5604;50.722;7.078;2022-08-19T08:09:58;575.40;;;547.83;;
11100;SDS011;5604;50.722;7.078;2022-08-19T08:12:31;556.70;;;530.50;;
11100;SDS011;5604;50.722;7.078;2022-08-19T08:15:03;548.90;;;523.13;;
11100;SDS011;5604;50.722;7.078;2022-08-19T08:17:39;553.93;;;528.03;;
11100;SDS011;5604;50.722;7.078;2022-08-19T08:20:17;535.20;;;510.53;;
11100;SDS011;5604;50.722;7.078;2022-08-19T08:22:47;538.13;;;513.40;;
11100;SDS011;5604;50.722;7.078;2022-08-19T08:25:33;522.67;;;498.83;;
11100;SDS011;5604;50.722;7.078;2022-08-19T08:28:03;529.70;;;505.57;;
11100;SDS011;5604;50.722;7.078;2022-08-19T08:30:32;525.00;;;501.17;;
11100;SDS011;5604;50.722;7.078;2022-08-19T08:33:04;522.93;;;499.17;;
11100;SDS011;5604;50.722;7.078;2022-08-19T08:35:33;515.10;;;491.80;;
11100;SDS011;5604;50.722;7.078;2022-08-19T08:38:01;521.90;;;498.13;;
11100;SDS011;5604;50.722;7.078;2022-08-19T08:40:31;524.13;;;500.37;;
11100;SDS011;5604;50.722;7.078;2022-08-19T08:43:06;521.83;;;498.00;;
11100;SDS011;5604;50.722;7.078;2022-08-19T08:45:54;521.27;;;497.70;;
11100;SDS011;5604;50.722;7.078;2022-08-19T08:51:18;533.23;;;508.83;;
11100;SDS011;5604;50.722;7.078;2022-08-19T08:53:49;528.97;;;504.63;;
11100;SDS011;5604;50.722;7.078;2022-08-19T08:56:22;528.10;;;503.87;;
11100;SDS011;5604;50.722;7.078;2022-08-19T08:58:51;532.57;;;508.10;;
11100;SDS011;5604;50.722;7.078;2022-08-19T09:01:24;526.20;;;501.80;;
11100;SDS011;5604;50.722;7.078;2022-08-19T09:03:57;523.90;;;499.73;;
11100;SDS011;5604;50.722;7.078;2022-08-19T09:06:31;518.17;;;494.03;;
11100;SDS011;5604;50.722;7.078;2022-08-19T09:09:11;522.87;;;498.90;;
11100;SDS011;5604;50.722;7.078;2022-08-19T09:11:47;509.87;;;486.63;;
11100;SDS011;5604;50.722;7.078;2022-08-19T09:14:23;485.83;;;463.93;;
11100;SDS011;5604;50.722;7.078;2022-08-19T09:17:18;482.60;;;460.90;;
11100;SDS011;5604;50.722;7.078;2022-08-19T09:19:57;490.00;;;467.73;;
11100;SDS011;5604;50.722;7.078;2022-08-19T09:22:27;480.63;;;458.93;;
11100;SDS011;5604;50.722;7.078;2022-08-19T09:24:55;483.67;;;461.63;;
11100;SDS011;5604;50.722;7.078;2022-08-19T09:27:24;489.40;;;467.43;;
11100;SDS011;5604;50.722;7.078;2022-08-19T09:30:10;473.17;;;452.00;;
11100;SDS011;5604;50.722;7.078;2022-08-19T09:32:41;473.50;;;452.20;;
11100;SDS011;5604;50.722;7.078;2022-08-19T09:35:12;481.83;;;460.00;;
11100;SDS011;5604;50.722;7.078;2022-08-19T09:37:41;481.60;;;459.83;;
11100;SDS011;5604;50.722;7.078;2022-08-19T09:40:10;465.13;;;444.53;;
11100;SDS011;5604;50.722;7.078;2022-08-19T09:42:41;482.83;;;461.03;;
11100;SDS011;5604;50.722;7.078;2022-08-19T09:45:16;470.43;;;449.60;;
11100;SDS011;5604;50.722;7.078;2022-08-19T09:47:49;471.30;;;450.03;;
11100;SDS011;5604;50.722;7.078;2022-08-19T09:50:21;479.47;;;458.03;;
11100;SDS011;5604;50.722;7.078;2022-08-19T09:52:50;474.37;;;453.43;;
11100;SDS011;5604;50.722;7.078;2022-08-19T09:55:23;463.87;;;443.43;;
11100;SDS011;5604;50.722;7.078;2022-08-19T09:57:59;467.73;;;446.83;;
11100;SDS011;5604;50.722;7.078;2022-08-19T10:00:28;468.47;;;448.00;;
11100;SDS011;5604;50.722;7.078;2022-08-19T10:02:57;468.90;;;447.60;;
11100;SDS011;5604;50.722;7.078;2022-08-19T10:05:28;463.60;;;442.93;;
11100;SDS011;5604;50.722;7.078;2022-08-19T10:08:15;460.37;;;440.00;;
11100;SDS011;5604;50.722;7.078;2022-08-19T10:10:46;456.43;;;436.57;;
11100;SDS011;5604;50.722;7.078;2022-08-19T10:13:15;449.10;;;429.43;;
11100;SDS011;5604;50.722;7.078;2022-08-19T10:15:50;464.50;;;444.10;;
11100;SDS011;5604;50.722;7.078;2022-08-19T10:18:21;458.23;;;438.10;;
11100;SDS011;5604;50.722;7.078;2022-08-19T10:20:52;466.53;;;446.07;;
11100;SDS011;5604;50.722;7.078;2022-08-19T10:23:21;472.53;;;451.37;;
11100;SDS011;5604;50.722;7.078;2022-08-19T10:25:49;452.77;;;432.73;;
11100;SDS011;5604;50.722;7.078;2022-08-19T10:28:20;466.57;;;445.93;;
11100;SDS011;5604;50.722;7.078;2022-08-19T10:30:49;461.87;;;441.63;;
11100;SDS011;5604;50.722;7.078;2022-08-19T10:33:18;454.07;;;434.20;;
11100;SDS011;5604;50.722;7.078;2022-08-19T10:36:09;456.10;;;435.87;;
11100;SDS011;5604;50.722;7.078;2022-08-19T10:38:44;450.07;;;430.27;;
11100;SDS011;5604;50.722;7.078;2022-08-19T10:41:22;454.70;;;434.73;;
11100;SDS011;5604;50.722;7.078;2022-08-19T10:43:52;431.97;;;413.47;;
11100;SDS011;5604;50.722;7.078;2022-08-19T10:46:22;422.80;;;404.63;;
11100;SDS011;5604;50.722;7.078;2022-08-19T10:48:50;407.70;;;390.70;;
11100;SDS011;5604;50.722;7.078;2022-08-19T10:51:21;407.03;;;389.60;;
11100;SDS011;5604;50.722;7.078;2022-08-19T10:54:14;399.30;;;382.47;;
11100;SDS011;5604;50.722;7.078;2022-08-19T10:56:56;398.27;;;381.73;;
11100;SDS011;5604;50.722;7.078;2022-08-19T10:59:25;402.83;;;385.87;;
11100;SDS011;5604;50.722;7.078;2022-08-19T11:02:01;403.67;;;386.50;;
11100;SDS011;5604;50.722;7.078;2022-08-19T11:04:31;418.73;;;401.20;;
11100;SDS011;5604;50.722;7.078;2022-08-19T11:07:02;420.47;;;402.93;;
11100;SDS011;5604;50.722;7.078;2022-08-19T11:09:36;421.37;;;403.63;;
11100;SDS011;5604;50.722;7.078;2022-08-19T11:12:06;406.67;;;389.87;;
11100;SDS011;5604;50.722;7.078;2022-08-19T11:14:37;398.83;;;382.13;;
11100;SDS011;5604;50.722;7.078;2022-08-19T11:17:06;412.67;;;395.47;;
11100;SDS011;5604;50.722;7.078;2022-08-19T11:19:34;399.70;;;382.90;;
11100;SDS011;5604;50.722;7.078;2022-08-19T11:22:06;404.60;;;388.00;;
11100;SDS011;5604;50.722;7.078;2022-08-19T11:24:36;390.27;;;374.07;;
11100;SDS011;5604;50.722;7.078;2022-08-19T11:27:05;387.93;;;371.90;;
11100;SDS011;5604;50.722;7.078;2022-08-19T11:29:35;392.17;;;376.17;;
11100;SDS011;5604;50.722;7.078;2022-08-19T11:32:07;399.93;;;383.23;;
11100;SDS011;5604;50.722;7.078;2022-08-19T11:34:39;388.20;;;372.27;;
11100;SDS011;5604;50.722;7.078;2022-08-19T11:37:09;388.40;;;372.47;;
11100;SDS011;5604;50.722;7.078;2022-08-19T11:39:37;382.37;;;366.80;;
11100;SDS011;5604;50.722;7.078;2022-08-19T11:42:05;389.03;;;372.73;;
11100;SDS011;5604;50.722;7.078;2022-08-19T11:44:54;371.97;;;356.87;;
11100;SDS011;5604;50.722;7.078;2022-08-19T11:47:24;368.60;;;353.60;;
11100;SDS011;5604;50.722;7.078;2022-08-19T11:49:52;373.77;;;358.27;;
11100;SDS011;5604;50.722;7.078;2022-08-19T11:55:53;384.53;;;368.83;;
11100;SDS011;5604;50.722;7.078;2022-08-19T11:58:23;398.27;;;381.60;;
11100;SDS011;5604;50.722;7.078;2022-08-19T12:00:51;399.60;;;383.00;;
11100;SDS011;5604;50.722;7.078;2022-08-19T12:03:20;396.40;;;379.90;;
11100;SDS011;5604;50.722;7.078;2022-08-19T12:05:49;404.63;;;387.63;;
11100;SDS011;5604;50.722;7.078;2022-08-19T12:08:19;402.23;;;385.10;;
11100;SDS011;5604;50.722;7.078;2022-08-19T12:10:48;410.47;;;393.20;;
11100;SDS011;5604;50.722;7.078;2022-08-19T12:13:16;419.77;;;402.23;;
11100;SDS011;5604;50.722;7.078;2022-08-19T12:15:45;419.07;;;401.37;;
11100;SDS011;5604;50.722;7.078;2022-08-19T12:18:14;416.33;;;398.93;;
11100;SDS011;5604;50.722;7.078;2022-08-19T12:20:42;431.40;;;413.07;;
11100;SDS011;5604;50.722;7.078;2022-08-19T12:23:12;417.00;;;399.20;;
11100;SDS011;5604;50.722;7.078;2022-08-19T12:25:45;425.33;;;407.10;;
11100;SDS011;5604;50.722;7.078;2022-08-19T12:28:19;432.73;;;414.17;;
11100;SDS011;5604;50.722;7.078;2022-08-19T12:30:49;424.20;;;405.77;;
11100;SDS011;5604;50.722;7.078;2022-08-19T12:33:20;436.40;;;417.67;;
11100;SDS011;5604;50.722;7.078;2022-08-19T12:35:52;427.47;;;409.33;;
11100;SDS011;5604;50.722;7.078;2022-08-19T12:38:20;437.60;;;419.13;;
11100;SDS011;5604;50.722;7.078;2022-08-19T12:40:52;423.43;;;405.50;;
11100;SDS011;5604;50.722;7.078;2022-08-19T12:43:25;435.93;;;417.47;;
11100;SDS011;5604;50.722;7.078;2022-08-19T12:45:54;431.43;;;413.00;;
11100;SDS011;5604;50.722;7.078;2022-08-19T12:48:22;431.70;;;413.10;;
11100;SDS011;5604;50.722;7.078;2022-08-19T12:51:01;429.13;;;410.87;;
11100;SDS011;5604;50.722;7.078;2022-08-19T12:53:33;440.67;;;422.03;;
11100;SDS011;5604;50.722;7.078;2022-08-19T12:56:06;435.37;;;416.87;;
11100;SDS011;5604;50.722;7.078;2022-08-19T12:58:38;439.10;;;420.13;;
11100;SDS011;5604;50.722;7.078;2022-08-19T13:01:16;436.07;;;417.37;;
11100;SDS011;5604;50.722;7.078;2022-08-19T13:03:49;426.73;;;408.43;;
11100;SDS011;5604;50.722;7.078;2022-08-19T13:06:19;425.90;;;407.87;;
11100;SDS011;5604;50.722;7.078;2022-08-19T13:08:47;412.37;;;394.73;;
11100;SDS011;5604;50.722;7.078;2022-08-19T13:11:18;419.10;;;401.63;;
11100;SDS011;5604;50.722;7.078;2022-08-19T13:13:48;427.07;;;408.90;;
11100;SDS011;5604;50.722;7.078;2022-08-19T13:16:17;424.03;;;406.13;;
11100;SDS011;5604;50.722;7.078;2022-08-19T13:18:46;437.13;;;418.63;;
11100;SDS011;5604;50.722;7.078;2022-08-19T13:21:15;434.77;;;416.53;;
11100;SDS011;5604;50.722;7.078;2022-08-19T13:23:49;428.50;;;410.33;;
11100;SDS011;5604;50.722;7.078;2022-08-19T13:26:19;440.30;;;421.30;;
11100;SDS011;5604;50.722;7.078;2022-08-19T13:28:47;437.70;;;419.10;;
11100;SDS011;5604;50.722;7.078;2022-08-19T13:31:34;440.33;;;421.57;;
11100;SDS011;5604;50.722;7.078;2022-08-19T13:34:26;434.63;;;416.30;;
11100;SDS011;5604;50.722;7.078;2022-08-19T13:36:57;432.77;;;414.77;;
11100;SDS011;5604;50.722;7.078;2022-08-19T13:39:28;428.67;;;410.63;;
11100;SDS011;5604;50.722;7.078;2022-08-19T13:41:58;434.40;;;416.07;;
11100;SDS011;5604;50.722;7.078;2022-08-19T13:44:27;439.90;;;420.90;;
11100;SDS011;5604;50.722;7.078;2022-08-19T13:46:59;427.77;;;409.63;;
11100;SDS011;5604;50.722;7.078;2022-08-19T13:49:33;440.97;;;422.03;;
11100;SDS011;5604;50.722;7.078;2022-08-19T13:52:02;439.90;;;421.30;;
11100;SDS011;5604;50.722;7.078;2022-08-19T13:54:32;426.83;;;408.77;;
11100;SDS011;5604;50.722;7.078;2022-08-19T13:57:01;435.83;;;417.43;;
11100;SDS011;5604;50.722;7.078;2022-08-19T13:59:30;425.77;;;407.93;;
11100;SDS011;5604;50.722;7.078;2022-08-19T14:01:59;425.70;;;407.83;;
11100;SDS011;5604;50.722;7.078;2022-08-19T14:04:27;435.03;;;416.53;;
11100;SDS011;5604;50.722;7.078;2022-08-19T14:06:56;429.27;;;411.23;;
11100;SDS011;5604;50.722;7.078;2022-08-19T14:09:24;429.57;;;411.33;;
11100;SDS011;5604;50.722;7.078;2022-08-19T14:11:52;432.00;;;413.73;;
11100;SDS011;5604;50.722;7.078;2022-08-19T14:14:22;431.43;;;413.37;;
11100;SDS011;5604;50.722;7.078;2022-08-19T14:16:50;435.10;;;416.63;;
11100;SDS011;5604;50.722;7.078;2022-08-19T14:19:19;432.37;;;414.13;;
11100;SDS011;5604;50.722;7.078;2022-08-19T14:21:49;431.63;;;413.43;;
11100;SDS011;5604;50.722;7.078;2022-08-19T14:24:17;433.73;;;415.47;;
11100;SDS011;5604;50.722;7.078;2022-08-19T14:26:45;426.30;;;407.83;;
11100;SDS011;5604;50.722;7.078;2022-08-19T14:29:13;433.10;;;414.83;;
11100;SDS011;5604;50.722;7.078;2022-08-19T14:31:43;441.33;;;422.70;;
11100;SDS011;5604;50.722;7.078;2022-08-19T14:34:11;441.17;;;422.53;;
11100;SDS011;5604;50.722;7.078;2022-08-19T14:36:39;435.77;;;417.27;;
11100;SDS011;5604;50.722;7.078;2022-08-19T14:39:08;426.13;;;408.40;;